Time;durP1;ratioP1;P1;durP2;ratioP2;P2;SDS_P1;SDS_P2;PMS_P1;PMS_P2;Temp;Humidity;BMP_temperature;BMP_pressure;BME280_temperature;BME280_humidity;BME280_pressure;Samples;Min_cycle;Max_cycle;Signal;HPM_P1;HPM_P2
2023/01/21 00:01:06;;;;;;;36.08;17.70;;;0.80;99.90;;;;;;5034895;28;91836;-72
2023/01/21 00:03:33;;;;;;;32.67;16.63;;;0.90;99.90;;;;;;5035466;27;99549;-71
2023/01/21 00:06:00;;;;;;;32.90;16.42;;;0.90;99.90;;;;;;5034491;28;93206;-71
2023/01/21 00:08:27;;;;;;;41.35;19.73;;;0.90;99.90;;;;;;5034366;27;94886;-71
2023/01/21 00:10:54;;;;;;;40.88;19.90;;;1.00;99.90;;;;;;5035745;27;92463;-71
2023/01/21 00:13:21;;;;;;;37.88;18.30;;;1.00;99.90;;;;;;5034141;28;93530;-71
2023/01/21 00:15:48;;;;;;;41.63;20.13;;;1.00;99.90;;;;;;5034522;28;93184;-72
2023/01/21 00:18:15;;;;;;;41.70;19.70;;;1.00;99.90;;;;;;5033930;28;92492;-71
2023/01/21 00:20:44;;;;;;;30.73;14.73;;;1.10;99.90;;;;;;5051039;27;92572;-71
2023/01/21 00:23:11;;;;;;;40.30;20.23;;;1.10;99.90;;;;;;5035275;27;93515;-71
2023/01/21 00:25:38;;;;;;;42.63;20.92;;;1.10;99.90;;;;;;5034363;28;95414;-71
2023/01/21 00:28:05;;;;;;;40.03;19.20;;;1.10;99.90;;;;;;5034475;28;92585;-72
2023/01/21 00:30:32;;;;;;;39.92;19.30;;;1.10;99.90;;;;;;5035587;28;92540;-71
2023/01/21 00:32:59;;;;;;;32.08;14.85;;;1.10;99.90;;;;;;5032394;28;97871;-71
2023/01/21 00:35:26;;;;;;;30.27;15.20;;;1.20;99.90;;;;;;5035205;28;94426;-71
2023/01/21 00:37:53;;;;;;;39.28;18.05;;;1.20;99.90;;;;;;5034189;28;92569;-72
2023/01/21 00:40:21;;;;;;;33.45;17.80;;;1.10;99.90;;;;;;5050437;27;92698;-71
2023/01/21 00:42:51;;;;;;;34.22;17.27;;;1.10;99.90;;;;;;5035182;27;93278;-71
2023/01/21 00:45:18;;;;;;;30.63;14.55;;;1.10;99.90;;;;;;5016213;28;95697;-71
2023/01/21 00:47:46;;;;;;;37.35;17.30;;;1.10;99.90;;;;;;5034175;28;92510;-71
2023/01/21 00:50:13;;;;;;;37.22;17.15;;;1.10;99.90;;;;;;5035337;27;91702;-71
2023/01/21 00:52:40;;;;;;;31.85;15.40;;;1.10;99.90;;;;;;5016897;28;95865;-72
2023/01/21 00:55:07;;;;;;;39.38;19.67;;;1.10;99.90;;;;;;5033819;28;93014;-71
2023/01/21 00:57:34;;;;;;;37.45;18.75;;;1.10;99.90;;;;;;5049339;27;94851;-71
2023/01/21 01:00:01;;;;;;;40.05;17.58;;;1.00;99.90;;;;;;5033427;28;92512;-71
2023/01/21 01:02:28;;;;;;;43.03;20.45;;;1.00;99.90;;;;;;5033326;28;96325;-71
2023/01/21 01:04:55;;;;;;;41.00;19.30;;;0.90;99.90;;;;;;5034821;28;95650;-71
2023/01/21 01:07:22;;;;;;;40.45;19.65;;;1.00;99.90;;;;;;5034799;27;92368;-71
2023/01/21 01:09:49;;;;;;;45.35;21.42;;;1.00;99.90;;;;;;5017139;28;92486;-71
2023/01/21 01:12:16;;;;;;;42.60;20.13;;;1.10;99.90;;;;;;5033322;28;93250;-71
2023/01/21 01:14:43;;;;;;;41.80;20.60;;;1.10;99.90;;;;;;5050747;27;93041;-71
2023/01/21 01:17:10;;;;;;;42.30;19.17;;;1.10;99.90;;;;;;5050528;27;92400;-71
2023/01/21 01:19:36;;;;;;;47.95;20.58;;;1.20;99.90;;;;;;5034777;27;92489;-71
2023/01/21 01:22:03;;;;;;;37.72;18.55;;;1.20;99.90;;;;;;5031937;28;98441;-71
2023/01/21 01:24:30;;;;;;;38.85;17.80;;;1.20;99.90;;;;;;5033114;27;98230;-71
2023/01/21 01:26:57;;;;;;;36.10;17.75;;;1.20;99.90;;;;;;5034783;27;92824;-71
2023/01/21 01:29:24;;;;;;;38.15;17.88;;;1.20;99.90;;;;;;5033196;28;92530;-71
2023/01/21 01:31:51;;;;;;;39.70;18.48;;;1.20;99.90;;;;;;5033219;28;93477;-71
2023/01/21 01:34:19;;;;;;;36.55;16.35;;;1.20;99.90;;;;;;5034308;27;92834;-71
2023/01/21 01:36:48;;;;;;;30.90;14.57;;;1.10;99.90;;;;;;5033302;28;92451;-71
2023/01/21 01:39:15;;;;;;;37.60;18.17;;;1.10;99.90;;;;;;5034188;27;92217;-71
2023/01/21 01:41:42;;;;;;;41.72;18.55;;;1.00;99.90;;;;;;5033073;28;93364;-71
2023/01/21 01:44:46;;;;;;;48.25;20.75;;;1.00;99.90;;;;;;5033176;28;92985;-71
2023/01/21 01:47:14;;;;;;;54.10;20.27;;;1.10;99.90;;;;;;5032271;28;94941;-71
2023/01/21 01:49:42;;;;;;;45.13;19.08;;;1.10;99.90;;;;;;5033089;28;92536;-71
2023/01/21 01:52:10;;;;;;;51.70;20.50;;;1.10;99.90;;;;;;5032832;28;94101;-72
2023/01/21 01:54:43;;;;;;;61.55;22.83;;;1.10;99.90;;;;;;5015840;27;96773;-71
2023/01/21 01:57:13;;;;;;;52.30;21.30;;;1.20;99.90;;;;;;5038186;28;92715;-71
2023/01/21 01:59:43;;;;;;;63.85;22.95;;;1.20;99.90;;;;;;5036108;28;92582;-71
2023/01/21 02:02:17;;;;;;;50.65;19.85;;;1.30;99.90;;;;;;5036143;28;93205;-70
2023/01/21 02:04:50;;;;;;;70.85;19.13;;;1.30;99.90;;;;;;5037853;27;92248;-72
2023/01/21 02:07:19;;;;;;;64.45;20.90;;;1.20;99.90;;;;;;5037983;28;92423;-71
2023/01/21 02:09:46;;;;;;;74.82;21.58;;;1.20;99.90;;;;;;5036403;28;92515;-72
2023/01/21 02:12:16;;;;;;;76.82;20.63;;;1.20;99.90;;;;;;5036284;28;95700;-72
2023/01/21 02:14:45;;;;;;;95.82;22.50;;;1.20;99.90;;;;;;5019411;28;98826;-72
2023/01/21 02:17:40;;;;;;;88.88;21.77;;;1.20;99.90;;;;;;5036368;28;92340;-72
2023/01/21 02:20:25;;;;;;;69.07;22.55;;;1.20;99.90;;;;;;5037705;28;92326;-72
2023/01/21 02:23:08;;;;;;;61.22;18.73;;;1.20;99.90;;;;;;5037670;28;93242;-72
2023/01/21 02:25:46;;;;;;;72.07;22.83;;;1.10;99.90;;;;;;5035949;28;92984;-71
2023/01/21 02:28:34;;;;;;;71.70;21.67;;;1.10;99.90;;;;;;5036296;28;92510;-72
2023/01/21 02:31:07;;;;;;;51.03;18.80;;;1.10;99.90;;;;;;5036733;28;92247;-72
2023/01/21 02:33:49;;;;;;;53.08;20.83;;;1.10;99.90;;;;;;5035914;28;93208;-72
2023/01/21 02:36:16;;;;;;;59.05;21.15;;;1.20;99.90;;;;;;5037266;28;92370;-72
2023/01/21 02:38:56;;;;;;;46.78;19.55;;;1.20;99.90;;;;;;5033658;28;94814;-72
2023/01/21 02:41:42;;;;;;;52.30;20.02;;;1.30;99.90;;;;;;5035987;28;92528;-72
2023/01/21 02:44:13;;;;;;;43.90;18.90;;;1.30;99.90;;;;;;5018772;28;95773;-72
2023/01/21 02:46:51;;;;;;;46.63;18.65;;;1.40;99.90;;;;;;5035420;28;95610;-72
2023/01/21 02:49:25;;;;;;;44.10;18.55;;;1.50;99.90;;;;;;5035738;28;92386;-72
2023/01/21 02:51:52;;;;;;;43.42;18.38;;;1.50;99.90;;;;;;5037527;27;93130;-72
2023/01/21 02:54:38;;;;;;;43.70;18.98;;;1.60;99.90;;;;;;5018726;28;95874;-72
2023/01/21 02:57:13;;;;;;;40.60;18.67;;;1.70;99.90;;;;;;5035612;28;95709;-72
2023/01/21 02:59:45;;;;;;;40.35;19.20;;;1.70;99.90;;;;;;5036757;28;92446;-72
2023/01/21 03:02:21;;;;;;;35.67;16.75;;;1.70;99.90;;;;;;5037138;27;92431;-72
2023/01/21 03:04:56;;;;;;;38.33;17.65;;;1.80;99.90;;;;;;5035160;28;95664;-72
2023/01/21 03:07:58;;;;;;;39.95;19.08;;;1.80;99.90;;;;;;5036341;27;95509;-72
2023/01/21 03:10:46;;;;;;;39.08;18.95;;;1.70;99.90;;;;;;5014324;28;92579;-72
2023/01/21 03:16:55;;;;;;;41.15;18.50;;;1.80;99.90;;;;;;5035231;28;92474;-72
2023/01/21 03:19:04;;;;;;;40.17;18.33;;;1.90;99.90;;;;;;5036420;27;93046;-72
2023/01/21 03:21:33;;;;;;;38.58;18.33;;;2.00;99.90;;;;;;5036606;27;92359;-72
2023/01/21 03:24:01;;;;;;;42.70;19.83;;;2.00;99.90;;;;;;5018705;28;91857;-72
2023/01/21 03:26:39;;;;;;;38.83;17.45;;;2.00;99.90;;;;;;5036238;28;100165;-72
2023/01/21 03:29:13;;;;;;;39.67;18.70;;;2.10;99.90;;;;;;5035228;28;92947;-72
2023/01/21 03:31:45;;;;;;;41.35;18.58;;;2.00;99.90;;;;;;5035182;28;95256;-72
2023/01/21 03:34:15;;;;;;;45.25;19.75;;;2.00;99.90;;;;;;5036611;28;92540;-72
2023/01/21 03:36:56;;;;;;;40.67;19.00;;;2.10;99.90;;;;;;5035995;28;93266;-72
2023/01/21 03:39:44;;;;;;;43.33;19.27;;;2.10;99.90;;;;;;5035788;27;93000;-71
2023/01/21 03:42:12;;;;;;;38.75;18.75;;;2.20;99.90;;;;;;5034943;28;92402;-73
2023/01/21 03:44:40;;;;;;;39.28;19.00;;;2.10;99.90;;;;;;5035964;27;92945;-73
2023/01/21 03:47:30;;;;;;;38.50;19.73;;;2.20;99.90;;;;;;5035947;27;93549;-70
2023/01/21 03:50:06;;;;;;;38.67;19.35;;;2.20;99.90;;;;;;5035105;28;93199;-72
2023/01/21 03:52:33;;;;;;;42.55;20.15;;;2.20;99.90;;;;;;5035761;27;92343;-72
2023/01/21 03:55:00;;;;;;;43.70;21.05;;;2.20;99.90;;;;;;5035876;28;92406;-72
2023/01/21 03:57:27;;;;;;;39.10;18.98;;;2.20;99.90;;;;;;5032990;28;98626;-72
2023/01/21 03:59:55;;;;;;;45.92;20.10;;;2.10;99.90;;;;;;5017271;28;101317;-72
2023/01/21 04:02:21;;;;;;;41.08;20.00;;;2.00;99.90;;;;;;5034611;28;92423;-72
2023/01/21 04:04:50;;;;;;;40.85;18.10;;;1.90;99.90;;;;;;5035577;28;92582;-72
2023/01/21 04:07:17;;;;;;;44.17;20.13;;;1.80;99.90;;;;;;5035519;28;93629;-72
2023/01/21 04:09:44;;;;;;;45.00;20.27;;;1.70;99.90;;;;;;5017695;28;96458;-72
2023/01/21 04:12:12;;;;;;;46.65;19.63;;;1.60;99.90;;;;;;5035605;27;93602;-72
2023/01/21 04:14:39;;;;;;;48.63;20.08;;;1.60;99.90;;;;;;5017889;28;92787;-72
2023/01/21 04:17:05;;;;;;;46.70;20.30;;;1.50;99.90;;;;;;5051220;27;93328;-72
2023/01/21 04:19:32;;;;;;;47.67;19.38;;;1.30;99.90;;;;;;5034166;27;93170;-72
2023/01/21 04:22:00;;;;;;;51.00;20.13;;;1.30;99.90;;;;;;5034281;27;94827;-72
2023/01/21 04:24:26;;;;;;;50.13;19.90;;;1.20;99.90;;;;;;5035514;27;92880;-72
2023/01/21 04:26:53;;;;;;;54.75;20.63;;;1.10;99.90;;;;;;5050858;27;93068;-72
2023/01/21 04:29:21;;;;;;;51.20;19.27;;;1.00;99.90;;;;;;5034142;28;93066;-72
2023/01/21 04:31:47;;;;;;;47.58;19.63;;;0.90;99.90;;;;;;5035220;27;92501;-72
2023/01/21 04:34:17;;;;;;;49.97;21.38;;;0.90;99.90;;;;;;5034456;28;92923;-72
2023/01/21 04:36:45;;;;;;;56.42;20.27;;;0.80;99.90;;;;;;5034819;27;93158;-72
2023/01/21 04:39:12;;;;;;;52.83;21.52;;;0.80;99.90;;;;;;5050516;27;93093;-72
2023/01/21 04:41:39;;;;;;;46.65;19.77;;;0.70;99.90;;;;;;5035275;28;92429;-72
2023/01/21 04:44:06;;;;;;;46.63;19.75;;;0.70;99.90;;;;;;5034044;28;92476;-72
2023/01/21 04:46:33;;;;;;;51.60;20.63;;;0.70;99.90;;;;;;5033833;27;96208;-72
2023/01/21 04:49:00;;;;;;;47.28;19.17;;;0.80;99.90;;;;;;5032926;28;97902;-72
2023/01/21 04:51:27;;;;;;;42.42;19.00;;;0.80;99.90;;;;;;5035118;27;92460;-71
2023/01/21 04:53:54;;;;;;;46.42;19.23;;;0.90;99.90;;;;;;5034913;27;92505;-71
2023/01/21 04:56:21;;;;;;;44.28;19.02;;;1.00;99.90;;;;;;5033694;28;93189;-71
2023/01/21 04:58:48;;;;;;;47.42;20.15;;;1.10;99.90;;;;;;5034866;27;93122;-71
2023/01/21 05:01:15;;;;;;;42.20;19.63;;;1.20;99.90;;;;;;5033831;28;92507;-71
2023/01/21 05:03:42;;;;;;;44.17;20.05;;;1.20;99.90;;;;;;5017066;28;91831;-71
2023/01/21 05:06:09;;;;;;;47.15;20.08;;;1.20;99.90;;;;;;5050393;27;93543;-72
2023/01/21 05:08:36;;;;;;;44.42;18.88;;;1.20;99.90;;;;;;5033741;28;93305;-72
2023/01/21 05:11:05;;;;;;;46.00;20.13;;;1.20;99.90;;;;;;5032142;28;94922;-71
2023/01/21 05:13:32;;;;;;;47.15;21.10;;;1.20;99.90;;;;;;5034815;27;92533;-71
2023/01/21 05:16:07;;;;;;;49.53;20.73;;;1.30;99.90;;;;;;5034532;28;93236;-72
2023/01/21 05:18:35;;;;;;;51.22;21.13;;;1.30;99.90;;;;;;5016987;28;95595;-72
2023/01/21 05:21:03;;;;;;;47.92;20.30;;;1.40;99.90;;;;;;5033186;28;92501;-71
2023/01/21 05:23:30;;;;;;;52.80;21.52;;;1.40;99.90;;;;;;5033374;28;92913;-72
2023/01/21 05:25:57;;;;;;;48.85;21.00;;;1.50;99.90;;;;;;5032998;27;96006;-72
2023/01/21 05:28:24;;;;;;;55.40;20.90;;;1.60;99.90;;;;;;5033706;28;92992;-72
2023/01/21 05:30:51;;;;;;;46.95;19.48;;;1.60;99.90;;;;;;5034916;28;92398;-72
2023/01/21 05:33:22;;;;;;;48.33;21.25;;;1.70;99.90;;;;;;5038483;27;92822;-72
2023/01/21 05:35:49;;;;;;;48.05;20.60;;;1.70;99.90;;;;;;5052972;27;95976;-72
2023/01/21 05:38:16;;;;;;;46.33;20.05;;;1.80;99.90;;;;;;5053463;27;95544;-72
2023/01/21 05:40:43;;;;;;;42.47;19.42;;;1.80;99.90;;;;;;5038078;28;92427;-72
2023/01/21 05:43:10;;;;;;;46.85;19.60;;;1.90;99.90;;;;;;5037858;28;92469;-72
2023/01/21 05:45:37;;;;;;;42.60;19.35;;;1.80;99.90;;;;;;5020002;28;95665;-73
2023/01/21 05:48:04;;;;;;;42.83;19.92;;;1.90;99.90;;;;;;5037590;28;93033;-72
2023/01/21 05:50:37;;;;;;;45.33;20.95;;;1.90;99.90;;;;;;5036757;28;92392;-72
2023/01/21 05:53:04;;;;;;;38.00;18.15;;;1.90;99.90;;;;;;5038023;27;91705;-72
2023/01/21 05:55:31;;;;;;;38.42;18.67;;;1.90;99.90;;;;;;5036474;28;92822;-72
2023/01/21 05:57:58;;;;;;;43.97;19.83;;;2.00;99.90;;;;;;5036058;28;92592;-72
2023/01/21 06:00:25;;;;;;;41.38;18.83;;;2.00;99.90;;;;;;5035095;28;94931;-72
2023/01/21 06:02:52;;;;;;;45.13;18.08;;;2.00;99.90;;;;;;5036322;28;92475;-72
2023/01/21 06:05:19;;;;;;;43.70;20.25;;;2.00;99.90;;;;;;5037372;27;97352;-72
2023/01/21 06:07:46;;;;;;;41.15;19.58;;;2.00;99.90;;;;;;5037493;28;93239;-72
2023/01/21 06:10:13;;;;;;;41.28;18.80;;;2.10;99.90;;;;;;5037424;28;92355;-73
2023/01/21 06:12:40;;;;;;;43.75;20.58;;;2.10;99.90;;;;;;5036073;28;92545;-72
2023/01/21 06:15:07;;;;;;;47.08;22.75;;;2.10;99.90;;;;;;5035710;28;96290;-72
2023/01/21 06:17:39;;;;;;;49.05;22.00;;;2.10;99.90;;;;;;5037787;28;93207;-72
2023/01/21 06:20:07;;;;;;;44.75;20.27;;;2.10;99.90;;;;;;5036055;28;93141;-72
2023/01/21 06:22:33;;;;;;;45.05;19.70;;;2.10;99.90;;;;;;5036024;28;93093;-72
2023/01/21 06:25:00;;;;;;;40.13;18.83;;;2.10;99.90;;;;;;5034450;28;95737;-72
2023/01/21 06:27:27;;;;;;;36.78;18.27;;;2.10;99.90;;;;;;5052921;27;95692;-72
2023/01/21 06:29:54;;;;;;;40.75;18.95;;;2.20;99.90;;;;;;5036241;28;92514;-71
2023/01/21 06:32:21;;;;;;;40.47;18.15;;;2.10;99.90;;;;;;5037220;28;92481;-71
2023/01/21 06:34:48;;;;;;;41.50;19.45;;;2.10;99.90;;;;;;5037098;27;93310;-71
2023/01/21 06:37:15;;;;;;;40.75;18.73;;;2.20;99.90;;;;;;5002078;28;96071;-72
2023/01/21 06:39:42;;;;;;;39.53;19.63;;;2.20;99.90;;;;;;5052541;27;92446;-71
2023/01/21 06:42:09;;;;;;;48.72;23.00;;;2.20;99.90;;;;;;5035056;27;91743;-71
2023/01/21 06:44:36;;;;;;;38.83;20.30;;;2.20;99.90;;;;;;5035647;28;93625;-71
2023/01/21 06:47:03;;;;;;;41.10;19.00;;;2.20;99.90;;;;;;5052657;27;95270;-72
2023/01/21 06:49:30;;;;;;;38.30;17.58;;;2.20;99.90;;;;;;5035721;28;95309;-71
2023/01/21 06:51:57;;;;;;;41.15;17.75;;;2.10;99.90;;;;;;5035662;28;92564;-72
2023/01/21 06:54:24;;;;;;;36.63;17.60;;;2.10;99.90;;;;;;5035722;28;93234;-72
2023/01/21 06:56:51;;;;;;;42.00;18.90;;;2.20;99.90;;;;;;5035478;28;93081;-72
2023/01/21 06:59:18;;;;;;;41.42;18.63;;;2.10;99.90;;;;;;5035054;28;92519;-72
2023/01/21 07:01:45;;;;;;;37.33;16.90;;;2.10;99.90;;;;;;5036991;28;92443;-72
2023/01/21 07:04:12;;;;;;;33.95;17.05;;;2.10;99.90;;;;;;5034858;28;101604;-72
2023/01/21 07:06:39;;;;;;;41.42;18.70;;;2.10;99.90;;;;;;5035413;28;95582;-72
2023/01/21 07:09:07;;;;;;;43.05;18.98;;;2.00;99.90;;;;;;5035181;28;92523;-72
2023/01/21 07:11:34;;;;;;;43.75;19.02;;;2.00;99.90;;;;;;5036740;27;93077;-72
2023/01/21 07:14:01;;;;;;;43.03;20.30;;;2.00;99.90;;;;;;5033884;28;95851;-72
2023/01/21 07:16:28;;;;;;;45.20;18.60;;;2.10;99.90;;;;;;5052110;27;95407;-72
2023/01/21 07:18:55;;;;;;;47.85;19.70;;;2.10;99.90;;;;;;5035522;28;92787;-72
2023/01/21 07:21:24;;;;;;;36.17;17.80;;;2.10;99.90;;;;;;5018228;28;93430;-72
2023/01/21 07:23:52;;;;;;;38.08;19.13;;;2.20;99.90;;;;;;5035048;28;93553;-72
2023/01/21 07:26:19;;;;;;;40.63;18.60;;;2.20;99.90;;;;;;5034756;28;95771;-72
2023/01/21 07:28:46;;;;;;;39.15;17.83;;;2.20;99.90;;;;;;5036337;27;92439;-72
2023/01/21 07:31:13;;;;;;;47.70;19.75;;;2.20;99.90;;;;;;5035065;28;91699;-73
2023/01/21 07:33:40;;;;;;;48.80;20.33;;;2.20;99.90;;;;;;5034827;28;93320;-73
2023/01/21 07:36:07;;;;;;;41.17;19.67;;;2.20;99.90;;;;;;5036025;27;93792;-73
2023/01/21 07:38:34;;;;;;;44.40;20.13;;;2.30;99.90;;;;;;5034510;28;94853;-73
2023/01/21 07:41:01;;;;;;;39.55;19.58;;;2.30;99.90;;;;;;5036246;27;92426;-72
2023/01/21 07:43:31;;;;;;;38.90;17.75;;;2.40;99.90;;;;;;5034623;28;93168;-73
2023/01/21 07:45:58;;;;;;;41.58;18.70;;;2.40;99.90;;;;;;5034630;28;93381;-72
2023/01/21 07:48:26;;;;;;;45.97;20.17;;;2.40;99.90;;;;;;5034615;28;92932;-72
2023/01/21 07:50:57;;;;;;;42.38;18.60;;;2.30;99.90;;;;;;5035910;28;92470;-73
2023/01/21 07:53:24;;;;;;;42.05;19.95;;;2.40;99.90;;;;;;5034299;27;96159;-73
2023/01/21 07:55:51;;;;;;;42.22;21.88;;;2.50;99.90;;;;;;5036130;27;92997;-72
2023/01/21 07:58:18;;;;;;;40.92;20.13;;;2.40;99.90;;;;;;5001190;28;92965;-72
2023/01/21 08:00:45;;;;;;;39.17;18.90;;;2.40;99.90;;;;;;5035496;28;92511;-73
2023/01/21 08:03:12;;;;;;;40.60;18.25;;;2.40;99.90;;;;;;5016084;28;97291;-72
2023/01/21 08:05:39;;;;;;;44.58;19.00;;;2.40;99.90;;;;;;5017582;28;98215;-72
2023/01/21 08:08:06;;;;;;;44.85;21.52;;;2.50;99.90;;;;;;5035904;28;92587;-73
2023/01/21 08:10:33;;;;;;;42.90;19.77;;;2.40;99.90;;;;;;5017525;28;92481;-72
2023/01/21 08:13:00;;;;;;;43.80;21.30;;;2.40;99.90;;;;;;5035566;28;93658;-72
2023/01/21 08:15:28;;;;;;;46.33;20.45;;;2.50;99.90;;;;;;5017236;28;94123;-72
2023/01/21 08:17:55;;;;;;;38.67;19.23;;;2.50;99.90;;;;;;5034665;28;92752;-72
2023/01/21 08:20:22;;;;;;;40.90;20.48;;;2.50;99.90;;;;;;5017542;28;91771;-73
2023/01/21 08:22:50;;;;;;;44.75;21.75;;;2.50;99.90;;;;;;5034387;28;93285;-72
2023/01/21 08:25:17;;;;;;;46.15;21.33;;;2.50;99.90;;;;;;5035106;27;94535;-72
2023/01/21 08:27:44;;;;;;;42.30;20.17;;;2.60;99.90;;;;;;5016181;28;94810;-72
2023/01/21 08:30:11;;;;;;;42.90;20.67;;;2.70;99.90;;;;;;5035518;27;92440;-72
2023/01/21 08:32:38;;;;;;;43.35;20.75;;;2.70;99.90;;;;;;5000916;28;95789;-72
2023/01/21 08:35:06;;;;;;;41.45;20.75;;;2.80;99.90;;;;;;5034265;28;93403;-72
2023/01/21 08:37:33;;;;;;;37.53;18.95;;;2.80;99.90;;;;;;5033744;28;92419;-72
2023/01/21 08:40:00;;;;;;;36.67;17.60;;;2.80;99.90;;;;;;5033513;28;92512;-72
2023/01/21 08:42:27;;;;;;;39.28;19.00;;;2.90;99.90;;;;;;5033517;28;93194;-72
2023/01/21 08:44:54;;;;;;;40.88;20.25;;;2.90;99.90;;;;;;5035699;28;92932;-72
2023/01/21 08:47:21;;;;;;;42.45;20.40;;;2.90;99.90;;;;;;5017263;28;92493;-73
2023/01/21 08:49:48;;;;;;;37.83;19.15;;;2.90;99.90;;;;;;5033578;28;92583;-73
2023/01/21 08:52:19;;;;;;;41.58;18.77;;;2.90;99.90;;;;;;5032500;28;95645;-72
2023/01/21 08:54:46;;;;;;;40.95;18.80;;;3.00;99.90;;;;;;5033794;28;97502;-72
2023/01/21 08:57:16;;;;;;;38.85;20.60;;;3.10;99.90;;;;;;5035049;28;92430;-72
2023/01/21 08:59:43;;;;;;;37.80;19.05;;;3.10;99.90;;;;;;5033558;28;93023;-72
2023/01/21 09:02:10;;;;;;;34.30;18.70;;;3.20;99.90;;;;;;5050498;27;93341;-72
2023/01/21 09:04:37;;;;;;;38.85;19.20;;;3.20;99.90;;;;;;5033309;27;93195;-73
2023/01/21 09:07:04;;;;;;;38.83;18.45;;;3.20;99.90;;;;;;5037428;28;92423;-72
2023/01/21 09:09:31;;;;;;;36.42;19.90;;;3.20;99.90;;;;;;5037341;27;92201;-73
2023/01/21 09:11:58;;;;;;;32.75;17.60;;;3.20;99.90;;;;;;5038201;28;93078;-73
2023/01/21 09:14:26;;;;;;;39.40;19.20;;;3.20;99.90;;;;;;5036719;28;94264;-73
2023/01/21 09:16:54;;;;;;;35.60;19.27;;;3.10;99.90;;;;;;5035869;28;95303;-73
2023/01/21 09:19:22;;;;;;;35.03;18.98;;;3.20;99.90;;;;;;5019541;27;92535;-73
2023/01/21 09:21:51;;;;;;;38.33;19.17;;;3.20;99.90;;;;;;5038177;28;93704;-73
2023/01/21 09:24:19;;;;;;;37.10;19.10;;;3.30;99.90;;;;;;5036849;28;94729;-73
2023/01/21 09:26:46;;;;;;;37.20;19.65;;;3.40;99.90;;;;;;5038298;27;92349;-72
2023/01/21 09:29:13;;;;;;;30.90;17.02;;;3.40;99.90;;;;;;5038249;28;92437;-73
2023/01/21 09:31:40;;;;;;;35.63;18.60;;;3.50;99.90;;;;;;5036671;28;93067;-73
2023/01/21 09:34:09;;;;;;;36.00;19.63;;;3.50;99.90;;;;;;5054190;27;92974;-72
2023/01/21 09:36:37;;;;;;;34.50;18.85;;;3.60;99.90;;;;;;5037737;27;92341;-72
2023/01/21 09:39:06;;;;;;;39.10;20.23;;;3.60;99.90;;;;;;5019448;28;92553;-72
2023/01/21 09:41:39;;;;;;;36.92;20.33;;;3.50;99.90;;;;;;5036099;28;95879;-72
2023/01/21 09:44:27;;;;;;;37.47;18.58;;;3.60;99.90;;;;;;5036527;28;96487;-72
2023/01/21 09:47:13;;;;;;;39.92;21.38;;;3.60;99.90;;;;;;5037497;27;92377;-72
2023/01/21 09:49:42;;;;;;;37.97;20.55;;;3.60;99.90;;;;;;5037754;28;92512;-72
2023/01/21 09:52:31;;;;;;;34.75;19.02;;;3.70;99.90;;;;;;5037910;28;93233;-72
2023/01/21 09:55:00;;;;;;;39.90;20.00;;;3.70;99.90;;;;;;5019630;28;95401;-72
2023/01/21 09:57:39;;;;;;;38.40;20.88;;;3.70;99.90;;;;;;5037244;28;92324;-72
2023/01/21 10:00:18;;;;;;;35.80;19.88;;;3.80;99.90;;;;;;5038298;28;91654;-72
2023/01/21 10:02:56;;;;;;;38.45;20.02;;;3.80;99.90;;;;;;5037752;27;92372;-73
2023/01/21 10:05:26;;;;;;;35.60;18.75;;;3.90;99.90;;;;;;5037578;27;93073;-72
2023/01/21 10:08:13;;;;;;;33.17;19.13;;;3.90;99.90;;;;;;5036241;27;94766;-73
2023/01/21 10:10:57;;;;;;;36.20;19.70;;;4.10;99.90;;;;;;5037568;27;92341;-72
2023/01/21 10:13:33;;;;;;;31.95;18.35;;;4.10;99.90;;;;;;5037634;27;93038;-72
2023/01/21 10:16:13;;;;;;;38.53;20.33;;;4.20;99.90;;;;;;5052707;27;95466;-72
2023/01/21 10:18:44;;;;;;;38.33;19.77;;;4.20;99.90;;;;;;5018581;28;92439;-72
2023/01/21 10:21:34;;;;;;;33.50;18.63;;;4.30;99.90;;;;;;5037533;27;92339;-72
2023/01/21 10:24:23;;;;;;;30.25;17.35;;;4.40;99.90;;;;;;5069724;27;96212;-72
2023/01/21 10:26:52;;;;;;;34.85;19.27;;;4.50;99.90;;;;;;5053234;27;94485;-73
2023/01/21 10:29:23;;;;;;;37.10;19.70;;;4.50;99.90;;;;;;5037212;27;92476;-72
2023/01/21 10:32:01;;;;;;;39.42;19.85;;;4.50;99.90;;;;;;5037427;28;92378;-72
2023/01/21 10:34:30;;;;;;;30.70;17.95;;;4.60;99.90;;;;;;5034849;28;95718;-72
2023/01/21 10:37:16;;;;;;;35.03;19.85;;;4.70;99.90;;;;;;5036792;27;95806;-72
2023/01/21 10:39:48;;;;;;;31.90;18.05;;;4.70;99.90;;;;;;5035543;28;92450;-72
2023/01/21 10:42:26;;;;;;;33.55;19.13;;;4.60;99.90;;;;;;5037124;27;92445;-71
2023/01/21 10:45:12;;;;;;;28.55;16.38;;;4.70;99.90;;;;;;5035482;28;93693;-71
2023/01/21 10:48:04;;;;;;;32.25;18.27;;;4.80;99.90;;;;;;5035285;28;93116;-72
2023/01/21 10:50:53;;;;;;;31.80;18.08;;;4.80;99.90;;;;;;5036099;28;92511;-72
2023/01/21 10:53:50;;;;;;;34.08;19.55;;;4.90;99.90;;;;;;5037332;28;91616;-72
2023/01/21 10:56:36;;;;;;;31.42;19.08;;;4.90;99.90;;;;;;5035256;28;95843;-71
2023/01/21 10:59:14;;;;;;;35.38;19.48;;;5.00;99.90;;;;;;5036795;28;93078;-72
2023/01/21 11:01:47;;;;;;;32.13;18.55;;;5.00;99.90;;;;;;5035372;27;94830;-72
2023/01/21 11:04:26;;;;;;;37.37;20.23;;;5.00;99.90;;;;;;5036808;27;93167;-72
2023/01/21 11:06:59;;;;;;;33.05;18.15;;;5.00;99.90;;;;;;5036470;27;93285;-72
2023/01/21 11:09:30;;;;;;;33.90;17.83;;;4.90;99.90;;;;;;5036826;27;93153;-72
2023/01/21 11:11:59;;;;;;;31.95;18.20;;;4.90;99.90;;;;;;5035079;28;92513;-72
2023/01/21 11:14:27;;;;;;;34.65;19.23;;;5.00;99.90;;;;;;5035109;28;92531;-72
2023/01/21 11:16:54;;;;;;;30.15;18.80;;;5.10;99.90;;;;;;5036176;28;92490;-73
2023/01/21 11:19:29;;;;;;;31.55;18.20;;;5.20;99.90;;;;;;5035521;27;95596;-72
2023/01/21 11:22:16;;;;;;;29.17;18.60;;;5.20;99.90;;;;;;5036438;28;92480;-72
2023/01/21 11:24:46;;;;;;;29.75;16.48;;;5.40;99.90;;;;;;5034605;28;92545;-73
2023/01/21 11:27:36;;;;;;;31.73;17.92;;;5.30;99.90;;;;;;5034804;27;95937;-72
2023/01/21 11:30:05;;;;;;;27.80;17.50;;;5.40;99.90;;;;;;5034631;28;98624;-73
2023/01/21 11:32:52;;;;;;;26.75;17.65;;;5.40;99.90;;;;;;5021219;28;92541;-73
2023/01/21 11:35:21;;;;;;;28.90;16.90;;;5.50;99.90;;;;;;5035055;28;92400;-73
2023/01/21 11:37:48;;;;;;;27.00;16.60;;;5.60;99.90;;;;;;5035883;28;93301;-73
2023/01/21 11:40:24;;;;;;;27.30;16.65;;;5.60;99.90;;;;;;5034259;28;93066;-73
2023/01/21 11:42:55;;;;;;;28.45;16.90;;;5.70;99.90;;;;;;5036324;27;92417;-73
2023/01/21 11:45:25;;;;;;;26.55;15.60;;;5.60;99.90;;;;;;5036822;28;91855;-73
2023/01/21 11:47:52;;;;;;;25.50;16.40;;;5.50;99.90;;;;;;5034208;28;93670;-73
2023/01/21 11:50:28;;;;;;;24.27;16.05;;;5.60;99.90;;;;;;5035950;27;93328;-73
2023/01/21 11:53:13;;;;;;;28.13;17.17;;;5.60;99.90;;;;;;5033503;28;94923;-73
2023/01/21 11:55:58;;;;;;;25.40;17.50;;;5.70;99.90;;;;;;5036216;27;92355;-73
2023/01/21 11:58:33;;;;;;;28.80;16.52;;;5.70;99.90;;;;;;5018362;28;93337;-73
2023/01/21 12:01:03;;;;;;;28.60;18.02;;;5.60;99.90;;;;;;5035958;27;93117;-73
2023/01/21 12:03:36;;;;;;;27.55;17.85;;;5.50;99.90;;;;;;5036049;28;92988;-73
2023/01/21 12:06:06;;;;;;;25.25;15.45;;;5.40;99.90;;;;;;5034709;28;93411;-73
2023/01/21 12:08:36;;;;;;;28.98;17.02;;;5.20;99.90;;;;;;5017609;28;96186;-73
2023/01/21 12:11:05;;;;;;;27.90;16.02;;;5.10;99.90;;;;;;5036028;28;92951;-73
2023/01/21 12:13:41;;;;;;;26.77;15.63;;;5.10;99.90;;;;;;5034175;28;92539;-73
2023/01/21 12:16:14;;;;;;;25.30;15.63;;;5.00;99.90;;;;;;5035659;27;92430;-73
2023/01/21 12:19:19;;;;;;;22.90;14.33;;;5.00;99.90;;;;;;5033132;28;95579;-73
2023/01/21 12:21:55;;;;;;;22.83;15.13;;;5.00;99.90;;;;;;5034050;28;95549;-73
2023/01/21 12:24:30;;;;;;;20.30;13.50;;;5.10;99.90;;;;;;5017649;28;93099;-73
2023/01/21 12:27:31;;;;;;;20.17;13.88;;;5.20;99.90;;;;;;5035730;27;92444;-73
2023/01/21 12:30:07;;;;;;;19.88;13.70;;;5.40;99.90;;;;;;5033764;28;93602;-73
2023/01/21 12:32:41;;;;;;;21.92;13.52;;;5.40;99.90;;;;;;5035289;27;92794;-73
2023/01/21 12:35:22;;;;;;;17.20;11.02;;;5.50;99.90;;;;;;5035488;28;93167;-72
2023/01/21 12:37:59;;;;;;;21.60;12.52;;;5.60;99.90;;;;;;5068128;27;91715;-73
2023/01/21 12:40:40;;;;;;;16.60;9.82;;;5.50;99.90;;;;;;5033758;27;92488;-72
2023/01/21 12:43:20;;;;;;;20.30;12.70;;;5.50;99.90;;;;;;5068070;27;92525;-72
2023/01/21 12:46:19;;;;;;;18.40;12.80;;;5.60;99.90;;;;;;5032809;28;94786;-72
2023/01/21 12:48:55;;;;;;;15.80;10.63;;;5.70;99.90;;;;;;5034173;28;92588;-73
2023/01/21 12:51:40;;;;;;;19.58;12.82;;;5.60;99.90;;;;;;5033972;28;93157;-75
2023/01/21 12:54:18;;;;;;;16.55;9.85;;;5.60;99.90;;;;;;5035038;28;93128;-75
2023/01/21 12:56:56;;;;;;;16.90;11.77;;;5.60;99.90;;;;;;5068381;27;92500;-73
2023/01/21 12:59:34;;;;;;;16.33;10.95;;;5.60;99.90;;;;;;5035282;28;92449;-73